GCRR/ACE METAR and TAF weather

Enter ICAO airport designator
Station Type Date Time Source
GCRR METAR 2019/04/18 21:00 UTC NOAA

GCRR 182100Z 35016KT 320V020 9999 FEW045 18/11 Q1019


Station Type Date Time Source
GCRR Decoded METAR 2019/04/18 21:00 UTC NOAA

Lanzarote / Aeropuerto, Spain (GCRR) 28-57N 013-36W 21M
Apr 18, 2019 - 05:00 PM EDT / 2019.04.18 2100 UTC
Wind: from the N (350 degrees) at 18 MPH (16 KT) (direction variable):0
Visibility: greater than 7 mile(s):0
Sky conditions: mostly clear
Temperature: 64 F (18 C)
Dew Point: 51 F (11 C)
Relative Humidity: 63%
Pressure (altimeter): 30.09 in. Hg (1019 hPa)
ob: GCRR 182100Z 35016KT 320V020 9999 FEW045 18/11 Q1019
cycle: 21

Station Type Date Time Source
GCRR TAF 2019/04/18 21:27 UTC NOAA

TAF GCRR 182000Z 1821/1921 01011KT 9999 SCT035 TX23/1914Z TN16/1906Z PROB40
TEMPO 1909/1918 01015G25KT

Example: see airport list